createdAt,value
2019-03-21T00:01:30.922Z,62.11
2019-03-21T00:04:05.400Z,62.26
2019-03-21T00:06:34.729Z,62.38
2019-03-21T00:09:09.372Z,62.40
2019-03-21T00:12:01.348Z,62.81
2019-03-21T00:14:38.269Z,62.59
2019-03-21T00:17:12.512Z,62.56
2019-03-21T00:19:41.854Z,62.99
2019-03-21T00:22:11.220Z,62.85
2019-03-21T00:24:40.562Z,62.64
2019-03-21T00:27:09.917Z,62.57
2019-03-21T00:29:39.323Z,62.37
2019-03-21T00:32:08.745Z,62.42
2019-03-21T00:34:38.104Z,62.46
2019-03-21T00:37:07.450Z,62.54
2019-03-21T00:39:36.830Z,62.46
2019-03-21T00:42:06.168Z,62.32
2019-03-21T00:44:35.515Z,62.29
2019-03-21T00:47:04.942Z,62.64
2019-03-21T00:49:34.295Z,62.41
2019-03-21T00:52:03.664Z,62.33
2019-03-21T00:54:33.001Z,62.66
2019-03-21T00:57:02.356Z,62.82
2019-03-21T00:59:31.710Z,62.71
2019-03-21T01:02:01.123Z,62.53
2019-03-21T01:04:30.615Z,62.69
2019-03-21T01:06:59.974Z,62.66
2019-03-21T01:09:29.340Z,62.75
2019-03-21T01:11:58.680Z,62.87
2019-03-21T01:14:30.060Z,62.67
2019-03-21T01:16:59.112Z,62.79
2019-03-21T01:19:28.452Z,63.15
2019-03-21T01:21:57.837Z,63.50
2019-03-21T01:24:27.166Z,63.42
2019-03-21T01:26:56.523Z,63.63
2019-03-21T01:29:25.891Z,63.43
2019-03-21T01:31:55.222Z,63.61
2019-03-21T01:34:24.609Z,63.32
2019-03-21T01:36:53.940Z,63.31
2019-03-21T01:39:23.294Z,63.35
2019-03-21T01:41:52.657Z,63.08
2019-03-21T01:44:21.999Z,63.39
2019-03-21T01:46:53.163Z,63.25
2019-03-21T01:49:22.521Z,63.18
2019-03-21T01:51:51.852Z,63.26
2019-03-21T01:54:21.209Z,63.37
2019-03-21T01:56:50.539Z,63.59
2019-03-21T01:59:19.914Z,63.54
2019-03-21T02:01:49.248Z,63.73
2019-03-21T02:04:18.584Z,63.91
2019-03-21T02:06:48.038Z,64.04
2019-03-21T02:09:17.429Z,63.75
2019-03-21T02:11:46.938Z,64.18
2019-03-21T02:14:16.276Z,64.27
2019-03-21T02:16:45.596Z,64.23
2019-03-21T02:19:14.949Z,64.01
2019-03-21T02:21:44.346Z,63.87
2019-03-21T02:24:13.710Z,63.99
2019-03-21T02:26:43.046Z,63.99
2019-03-21T02:29:12.429Z,64.04
2019-03-21T02:31:41.828Z,64.13
2019-03-21T02:34:11.164Z,64.20
2019-03-21T02:36:40.586Z,64.84
2019-03-21T02:39:09.913Z,65.30
2019-03-21T02:41:39.284Z,64.95
2019-03-21T02:44:08.635Z,64.46
2019-03-21T02:46:37.972Z,64.04
2019-03-21T02:49:07.325Z,63.82
2019-03-21T02:51:36.667Z,63.85
2019-03-21T02:54:06.031Z,63.78
2019-03-21T02:56:35.372Z,63.89
2019-03-21T02:59:04.846Z,64.01
2019-03-21T03:01:34.194Z,64.01
2019-03-21T03:04:03.543Z,64.30
2019-03-21T03:06:32.933Z,64.27
2019-03-21T03:09:02.278Z,64.43
2019-03-21T03:11:31.626Z,64.48
2019-03-21T03:14:04.348Z,64.38
2019-03-21T03:16:32.052Z,64.35
2019-03-21T03:19:01.417Z,64.43
2019-03-21T03:21:30.751Z,64.56
2019-03-21T03:24:00.100Z,64.53
2019-03-21T03:26:29.459Z,64.45
2019-03-21T03:28:58.802Z,64.30
2019-03-21T03:31:28.174Z,64.38
2019-03-21T03:33:57.539Z,64.67
2019-03-21T03:36:26.853Z,64.50
2019-03-21T03:38:56.218Z,64.47
2019-03-21T03:41:25.559Z,64.54
2019-03-21T03:43:54.930Z,65.05
2019-03-21T03:46:24.288Z,65.39
2019-03-21T03:48:53.633Z,65.76
2019-03-21T03:51:23.024Z,66.02
2019-03-21T03:53:52.425Z,66.03
2019-03-21T03:56:21.786Z,65.91
2019-03-21T03:59:01.938Z,65.58
2019-03-21T04:01:31.320Z,65.30
2019-03-21T04:04:00.680Z,65.40
2019-03-21T04:06:30.002Z,65.23
2019-03-21T04:08:59.360Z,65.27
2019-03-21T04:11:28.716Z,65.37
2019-03-21T04:13:58.077Z,65.29
2019-03-21T04:16:27.421Z,65.42
2019-03-21T04:18:56.794Z,65.46
2019-03-21T04:21:26.131Z,65.49
2019-03-21T04:23:55.483Z,65.27
2019-03-21T04:26:35.301Z,65.07
2019-03-21T04:29:04.648Z,65.03
2019-03-21T04:31:34.019Z,64.77
2019-03-21T04:34:10.396Z,64.56
2019-03-21T04:36:43.539Z,65.01
2019-03-21T04:39:12.886Z,65.46
2019-03-21T04:41:45.251Z,65.36
2019-03-21T04:44:14.681Z,65.53
2019-03-21T04:46:44.021Z,65.26
2019-03-21T04:49:13.378Z,64.80
2019-03-21T04:51:42.719Z,64.84
2019-03-21T04:54:12.059Z,65.03
2019-03-21T04:56:41.419Z,65.17
2019-03-21T04:59:10.771Z,65.14
2019-03-21T05:01:40.134Z,65.41
2019-03-21T05:04:09.480Z,65.44
2019-03-21T05:06:38.847Z,65.48
2019-03-21T05:09:11.224Z,65.82
2019-03-21T05:11:40.563Z,65.63
2019-03-21T05:14:09.995Z,65.79
2019-03-21T05:16:39.336Z,65.64
2019-03-21T05:19:08.900Z,65.70
2019-03-21T05:21:38.589Z,65.71
2019-03-21T05:24:08.009Z,66.38
2019-03-21T05:26:37.374Z,66.07
2019-03-21T05:29:06.738Z,66.05
2019-03-21T05:31:37.193Z,65.84
2019-03-21T05:34:06.540Z,65.80
2019-03-21T05:36:35.917Z,65.48
2019-03-21T05:39:09.834Z,65.30
2019-03-21T05:41:39.182Z,65.55
2019-03-21T05:44:27.839Z,65.66
2019-03-21T05:46:57.182Z,65.36
2019-03-21T05:49:27.472Z,65.17
2019-03-21T05:51:56.888Z,64.85
2019-03-21T05:54:26.224Z,64.60
2019-03-21T05:56:55.647Z,64.76
2019-03-21T05:59:24.991Z,64.84
2019-03-21T06:01:54.339Z,64.95
2019-03-21T06:04:23.671Z,65.18
2019-03-21T06:07:10.259Z,65.21
2019-03-21T06:09:39.602Z,65.04
2019-03-21T06:12:09.333Z,64.97
2019-03-21T06:14:58.606Z,64.79
2019-03-21T06:17:28.572Z,64.47
2019-03-21T06:20:27.473Z,69.12
2019-03-21T06:23:16.570Z,68.89
2019-03-21T06:25:53.494Z,64.41
2019-03-21T06:28:22.933Z,61.39
2019-03-21T06:30:52.267Z,60.51
2019-03-21T06:33:21.612Z,60.20
2019-03-21T06:35:51.040Z,60.11
2019-03-21T06:38:20.385Z,60.15
2019-03-21T06:40:49.754Z,59.90
2019-03-21T06:43:19.095Z,59.72
2019-03-21T06:45:48.445Z,59.53
2019-03-21T06:48:17.799Z,59.34
2019-03-21T06:50:47.190Z,59.63
2019-03-21T06:53:16.564Z,59.26
2019-03-21T06:55:45.897Z,59.50
2019-03-21T06:58:15.226Z,59.23
2019-03-21T07:00:44.592Z,59.28
2019-03-21T07:03:16.265Z,59.26
2019-03-21T07:05:45.047Z,59.34
2019-03-21T07:08:14.374Z,59.02
2019-03-21T07:10:43.727Z,58.68
2019-03-21T07:13:13.097Z,58.35
2019-03-21T07:15:42.513Z,57.88
2019-03-21T07:18:11.886Z,58.01
2019-03-21T07:20:41.263Z,60.77
2019-03-21T07:23:10.611Z,60.79
2019-03-21T07:25:39.960Z,59.57
2019-03-21T07:28:09.314Z,58.66
2019-03-21T07:30:38.703Z,57.02
2019-03-21T07:33:08.062Z,54.60
2019-03-21T07:35:37.411Z,55.03
2019-03-21T07:38:06.770Z,54.63
2019-03-21T07:40:36.135Z,54.41
2019-03-21T07:43:05.668Z,54.95
2019-03-21T07:45:35.028Z,54.48
2019-03-21T07:48:05.300Z,52.68
2019-03-21T07:50:34.962Z,52.29
2019-03-21T07:53:04.384Z,51.34
2019-03-21T07:55:33.786Z,51.51
2019-03-21T07:58:03.125Z,51.25
2019-03-21T08:00:32.474Z,50.68
2019-03-21T08:03:01.839Z,50.44
2019-03-21T08:05:39.883Z,50.40
2019-03-21T08:08:02.284Z,50.48
2019-03-21T08:10:31.669Z,50.17
2019-03-21T08:13:01.013Z,48.63
2019-03-21T08:15:30.363Z,48.10
2019-03-21T08:17:59.781Z,49.20
2019-03-21T08:20:29.153Z,47.92
2019-03-21T08:22:58.522Z,47.72
2019-03-21T08:25:27.865Z,48.58
2019-03-21T08:27:57.249Z,48.87
2019-03-21T08:30:39.305Z,48.08
2019-03-21T08:33:08.673Z,47.69
2019-03-21T08:35:38.009Z,47.01
2019-03-21T08:38:07.353Z,46.77
2019-03-21T08:40:36.714Z,44.85
2019-03-21T08:43:06.068Z,47.65
2019-03-21T08:45:35.511Z,45.04
2019-03-21T08:48:04.876Z,46.09
2019-03-21T08:50:34.231Z,46.55
2019-03-21T08:53:03.594Z,44.95
2019-03-21T08:55:32.941Z,43.78
2019-03-21T08:58:02.328Z,44.38
2019-03-21T09:00:34.417Z,42.66
2019-03-21T09:03:02.798Z,43.61
2019-03-21T09:05:32.164Z,43.06
2019-03-21T09:08:01.512Z,43.32
2019-03-21T09:10:34.371Z,40.40
2019-03-21T09:13:02.239Z,41.36
2019-03-21T09:15:31.594Z,41.74
2019-03-21T09:18:01.063Z,41.50
2019-03-21T09:20:30.420Z,42.58
2019-03-21T09:22:59.779Z,42.49
2019-03-21T09:25:29.125Z,41.76
2019-03-21T09:28:02.956Z,42.84
2019-03-21T09:30:29.587Z,41.95
2019-03-21T09:32:58.944Z,41.40
2019-03-21T09:35:28.318Z,40.02
2019-03-21T09:37:57.663Z,40.66
2019-03-21T09:40:27.000Z,39.91
2019-03-21T09:42:56.449Z,40.74
2019-03-21T09:45:25.786Z,42.04
2019-03-21T09:47:55.181Z,39.45
2019-03-21T09:50:29.886Z,40.19
2019-03-21T09:52:59.235Z,40.23
2019-03-21T09:55:28.590Z,38.47
2019-03-21T09:57:57.924Z,37.62
2019-03-21T10:00:35.714Z,37.64
2019-03-21T10:03:05.867Z,37.00
2019-03-21T10:05:35.219Z,37.39
2019-03-21T10:08:04.855Z,36.98
2019-03-21T10:10:35.046Z,37.48
2019-03-21T10:13:05.170Z,37.62
2019-03-21T10:15:34.540Z,37.34
2019-03-21T10:18:03.952Z,37.17
2019-03-21T10:20:33.303Z,36.51
2019-03-21T10:23:02.653Z,36.77
2019-03-21T10:25:32.038Z,37.77
2019-03-21T10:28:01.387Z,37.42
2019-03-21T10:30:40.636Z,36.66
2019-03-21T10:33:12.585Z,36.83
2019-03-21T10:35:41.953Z,37.19
2019-03-21T10:38:11.302Z,37.21
2019-03-21T10:40:42.030Z,36.27
2019-03-21T10:43:11.392Z,35.65
2019-03-21T10:45:40.732Z,35.85
2019-03-21T10:48:10.108Z,35.60
2019-03-21T10:50:41.371Z,35.54
2019-03-21T10:53:10.719Z,35.30
2019-03-21T10:55:40.082Z,35.71
2019-03-21T10:58:09.436Z,35.05
2019-03-21T11:00:38.818Z,35.32
2019-03-21T11:03:08.235Z,34.35
2019-03-21T11:05:37.576Z,34.06
2019-03-21T11:08:06.961Z,33.15
2019-03-21T11:10:36.386Z,32.87
2019-03-21T11:13:06.134Z,33.24
2019-03-21T11:15:35.596Z,32.21
2019-03-21T11:18:05.009Z,31.81
2019-03-21T11:20:38.320Z,31.07
2019-03-21T11:23:08.196Z,30.88
2019-03-21T11:25:37.576Z,30.74
2019-03-21T11:28:08.450Z,29.77
2019-03-21T11:30:40.136Z,29.76
2019-03-21T11:33:09.501Z,29.08
2019-03-21T11:35:38.864Z,29.22
2019-03-21T11:38:08.248Z,29.43
2019-03-21T11:40:37.660Z,29.59
2019-03-21T11:43:08.196Z,30.11
2019-03-21T11:45:37.563Z,29.87
2019-03-21T11:48:06.982Z,29.09
2019-03-21T11:50:36.377Z,30.02
2019-03-21T11:53:05.724Z,29.33
2019-03-21T11:55:35.061Z,29.02
2019-03-21T11:58:04.444Z,29.49
2019-03-21T12:00:42.946Z,29.56
2019-03-21T12:03:05.022Z,28.48
2019-03-21T12:05:34.361Z,28.76
2019-03-21T12:08:03.781Z,27.92
2019-03-21T12:10:33.160Z,28.11
2019-03-21T12:13:02.515Z,27.44
2019-03-21T12:15:31.912Z,26.92
2019-03-21T12:18:01.336Z,26.65
2019-03-21T12:20:32.606Z,26.87
2019-03-21T12:23:02.043Z,26.95
2019-03-21T12:25:31.382Z,27.06
2019-03-21T12:28:01.646Z,27.07
2019-03-21T12:30:39.081Z,27.09
2019-03-21T12:33:08.509Z,26.83
2019-03-21T12:35:38.023Z,26.71
2019-03-21T12:38:07.372Z,27.39
2019-03-21T12:40:36.742Z,27.70
2019-03-21T12:43:06.098Z,27.13
2019-03-21T12:45:35.470Z,26.81
2019-03-21T12:48:04.883Z,27.09
2019-03-21T12:50:34.243Z,26.74
2019-03-21T12:53:03.628Z,27.44
2019-03-21T12:55:32.988Z,26.72
2019-03-21T12:58:02.368Z,27.10
2019-03-21T13:00:35.595Z,26.74
2019-03-21T13:03:05.102Z,26.49
2019-03-21T13:05:34.448Z,26.56
2019-03-21T13:08:03.866Z,26.06
2019-03-21T13:10:33.324Z,26.32
2019-03-21T13:13:02.679Z,26.11
2019-03-21T13:15:32.038Z,25.40
2019-03-21T13:18:01.413Z,25.94
2019-03-21T13:20:30.759Z,26.51
2019-03-21T13:23:00.152Z,26.71
2019-03-21T13:25:29.485Z,27.23
2019-03-21T13:27:58.919Z,27.03
2019-03-21T13:30:28.295Z,25.85
2019-03-21T13:32:57.675Z,25.13
2019-03-21T13:35:32.599Z,25.75
2019-03-21T13:37:58.118Z,26.13
2019-03-21T13:40:27.461Z,24.90
2019-03-21T13:42:56.823Z,25.49
2019-03-21T13:45:26.166Z,24.96
2019-03-21T13:47:55.553Z,24.77
2019-03-21T13:50:24.901Z,24.33
2019-03-21T13:53:04.262Z,24.14
2019-03-21T13:55:25.345Z,23.50
2019-03-21T13:57:54.698Z,23.91
2019-03-21T14:00:24.119Z,23.73
2019-03-21T14:02:53.471Z,23.79
2019-03-21T14:05:22.824Z,23.09
2019-03-21T14:07:52.187Z,22.52
2019-03-21T14:10:21.543Z,23.30
2019-03-21T14:12:50.934Z,22.65
2019-03-21T14:15:20.295Z,22.78
2019-03-21T14:17:49.661Z,22.58
2019-03-21T14:20:19.030Z,22.21
2019-03-21T14:22:48.378Z,22.30
2019-03-21T14:25:17.766Z,21.59
2019-03-21T14:27:47.119Z,21.09
2019-03-21T14:30:18.180Z,20.57
2019-03-21T14:32:47.566Z,21.14
2019-03-21T14:35:17.478Z,21.49
2019-03-21T14:37:46.916Z,20.92
2019-03-21T14:40:17.187Z,20.93
2019-03-21T14:42:46.635Z,20.56
2019-03-21T14:45:17.706Z,20.23
2019-03-21T14:47:47.143Z,20.44
2019-03-21T14:50:18.625Z,20.12
2019-03-21T14:52:47.992Z,19.75
2019-03-21T14:55:17.406Z,19.20
2019-03-21T14:57:46.766Z,19.90
2019-03-21T15:00:20.020Z,20.12
2019-03-21T15:02:49.383Z,19.59
2019-03-21T15:05:18.810Z,19.50
2019-03-21T15:07:48.141Z,19.39
2019-03-21T15:10:18.723Z,19.28
2019-03-21T15:12:48.064Z,19.58
2019-03-21T15:15:17.505Z,19.68
2019-03-21T15:17:46.849Z,19.42
2019-03-21T15:20:17.500Z,19.51
2019-03-21T15:22:46.866Z,19.05
2019-03-21T15:25:16.217Z,19.57
2019-03-21T15:27:45.587Z,19.77
2019-03-21T15:30:20.270Z,19.65
2019-03-21T15:32:49.723Z,19.46
2019-03-21T15:35:20.063Z,19.32
2019-03-21T15:37:49.416Z,19.72
2019-03-21T15:40:18.799Z,20.13
2019-03-21T15:42:48.153Z,19.54
2019-03-21T15:45:23.589Z,19.54
2019-03-21T15:47:49.548Z,19.09
2019-03-21T15:50:37.342Z,19.28
2019-03-21T15:53:06.402Z,19.22
2019-03-21T15:55:35.784Z,19.37
2019-03-21T15:58:05.210Z,19.26
2019-03-21T16:00:41.528Z,19.41
2019-03-21T16:03:12.394Z,19.31
2019-03-21T16:05:41.816Z,19.59
2019-03-21T16:08:11.263Z,19.40
2019-03-21T16:10:40.608Z,19.32
2019-03-21T16:13:09.959Z,19.17
2019-03-21T16:15:39.344Z,19.71
2019-03-21T16:18:08.716Z,19.52
2019-03-21T16:20:38.166Z,19.48
2019-03-21T16:23:07.516Z,19.17
2019-03-21T16:25:36.880Z,18.82
2019-03-21T16:28:06.282Z,19.22
2019-03-21T16:30:35.632Z,19.81
2019-03-21T16:33:05.023Z,20.35
2019-03-21T16:35:34.368Z,20.89
2019-03-21T16:38:03.791Z,20.74
2019-03-21T16:40:33.300Z,22.03
2019-03-21T16:43:05.327Z,22.83
2019-03-21T16:45:33.785Z,23.42
2019-03-21T16:48:03.130Z,23.98
2019-03-21T16:50:32.476Z,24.39
2019-03-21T16:53:01.847Z,24.13
2019-03-21T16:55:31.199Z,24.36
2019-03-21T16:58:00.612Z,24.40
2019-03-21T17:00:29.956Z,24.79
2019-03-21T17:02:59.394Z,24.95
2019-03-21T17:05:28.822Z,25.83
2019-03-21T17:08:10.098Z,26.01
2019-03-21T17:10:30.588Z,26.28
2019-03-21T17:13:04.460Z,25.81
2019-03-21T17:15:31.314Z,25.77
2019-03-21T17:18:00.702Z,25.72
2019-03-21T17:20:30.048Z,26.16
2019-03-21T17:22:59.430Z,26.53
2019-03-21T17:25:31.149Z,26.63
2019-03-21T17:27:59.926Z,28.08
2019-03-21T17:30:29.302Z,27.80
2019-03-21T17:32:58.654Z,28.62
2019-03-21T17:35:28.042Z,28.61
2019-03-21T17:37:58.159Z,29.11
2019-03-21T17:40:27.656Z,28.69
2019-03-21T17:42:57.033Z,28.70
2019-03-21T17:45:26.383Z,28.76
2019-03-21T17:47:55.763Z,28.34
2019-03-21T17:50:25.109Z,28.75
2019-03-21T17:52:54.470Z,28.79
2019-03-21T17:55:23.823Z,29.10
2019-03-21T17:57:53.242Z,29.16
2019-03-21T18:00:25.377Z,29.48
2019-03-21T18:02:54.028Z,29.93
2019-03-21T18:05:23.401Z,30.37
2019-03-21T18:07:52.769Z,30.28
2019-03-21T18:10:34.830Z,30.74
2019-03-21T18:13:04.420Z,30.93
2019-03-21T18:15:33.767Z,31.25
2019-03-21T18:18:03.125Z,31.71
2019-03-21T18:20:32.497Z,32.21
2019-03-21T18:23:01.840Z,32.40
2019-03-21T18:25:31.211Z,33.61
2019-03-21T18:28:00.562Z,34.07
2019-03-21T18:30:29.913Z,34.39
2019-03-21T18:32:59.290Z,34.68
2019-03-21T18:35:28.628Z,35.34
2019-03-21T18:37:58.006Z,35.86
2019-03-21T18:40:27.363Z,35.91
2019-03-21T18:42:56.711Z,36.51
2019-03-21T18:45:26.084Z,36.48
2019-03-21T18:47:55.434Z,37.45
2019-03-21T18:50:24.799Z,37.78
2019-03-21T18:52:54.233Z,38.15
2019-03-21T18:55:23.604Z,37.48
2019-03-21T18:57:52.970Z,38.30
2019-03-21T19:00:22.400Z,38.33
2019-03-21T19:02:51.762Z,38.25
2019-03-21T19:05:21.126Z,38.64
2019-03-21T19:07:50.475Z,39.00
2019-03-21T19:10:19.841Z,39.30
2019-03-21T19:12:49.254Z,39.45
2019-03-21T19:16:11.833Z,39.79
2019-03-21T19:18:41.295Z,40.15
2019-03-21T19:21:10.673Z,40.61
2019-03-21T19:23:40.040Z,40.42
2019-03-21T19:26:09.386Z,41.46
2019-03-21T19:28:38.760Z,40.96
2019-03-21T19:31:08.112Z,40.96
2019-03-21T19:33:37.458Z,41.25
2019-03-21T19:36:06.849Z,41.24
2019-03-21T19:38:36.201Z,41.59
2019-03-21T19:41:05.578Z,41.25
2019-03-21T19:43:34.929Z,41.15
2019-03-21T19:46:04.352Z,40.86
2019-03-21T19:48:33.722Z,41.33
2019-03-21T19:51:03.072Z,41.74
2019-03-21T19:53:32.452Z,41.85
2019-03-21T19:56:08.557Z,41.67
2019-03-21T19:58:32.877Z,41.70
2019-03-21T20:01:02.275Z,42.17
2019-03-21T20:03:31.630Z,41.72
2019-03-21T20:06:01.112Z,41.86
2019-03-21T20:08:30.452Z,42.02
2019-03-21T20:10:59.810Z,42.21
2019-03-21T20:13:29.176Z,42.51
2019-03-21T20:15:58.521Z,42.33
2019-03-21T20:18:27.899Z,42.56
2019-03-21T20:20:57.252Z,43.22
2019-03-21T20:23:26.595Z,42.67
2019-03-21T20:25:55.938Z,43.38
2019-03-21T20:28:25.297Z,43.77
2019-03-21T20:30:54.710Z,43.83
2019-03-21T20:33:24.061Z,44.43
2019-03-21T20:35:53.427Z,43.30
2019-03-21T20:38:22.769Z,42.95
2019-03-21T20:40:52.120Z,43.27
2019-03-21T20:43:22.317Z,43.38
2019-03-21T20:45:51.658Z,43.84
2019-03-21T20:48:30.347Z,43.39
2019-03-21T20:50:59.684Z,43.87
2019-03-21T20:53:29.032Z,44.32
2019-03-21T20:55:58.566Z,44.67
2019-03-21T20:58:27.914Z,44.50
2019-03-21T21:00:57.284Z,44.89
2019-03-21T21:03:26.626Z,45.37
2019-03-21T21:05:55.979Z,45.65
2019-03-21T21:08:25.351Z,45.48
2019-03-21T21:10:54.713Z,45.06
2019-03-21T21:13:24.096Z,44.87
2019-03-21T21:15:53.436Z,45.26
2019-03-21T21:18:22.785Z,45.18
2019-03-21T21:20:52.165Z,44.00
2019-03-21T21:23:21.561Z,44.58
2019-03-21T21:25:50.943Z,44.99
2019-03-21T21:28:20.315Z,45.20
2019-03-21T21:30:49.664Z,45.29
2019-03-21T21:33:19.011Z,44.89
2019-03-21T21:35:48.388Z,45.28
2019-03-21T21:38:17.715Z,46.09
2019-03-21T21:40:47.083Z,45.96
2019-03-21T21:43:16.433Z,45.50
2019-03-21T21:45:45.782Z,44.70
2019-03-21T21:48:15.117Z,44.66
2019-03-21T21:50:44.473Z,44.81
2019-03-21T21:53:13.818Z,44.70
2019-03-21T21:55:43.166Z,44.70
2019-03-21T21:58:12.554Z,44.36
2019-03-21T22:00:41.891Z,44.58
2019-03-21T22:03:11.310Z,44.56
2019-03-21T22:05:40.657Z,44.57
2019-03-21T22:08:10.005Z,44.94
2019-03-21T22:10:39.368Z,45.07
2019-03-21T22:13:08.726Z,45.81
2019-03-21T22:15:38.084Z,45.15
2019-03-21T22:18:07.416Z,45.04
2019-03-21T22:20:36.750Z,44.03
2019-03-21T22:23:06.187Z,44.41
2019-03-21T22:25:35.536Z,45.02
2019-03-21T22:28:04.888Z,45.07
2019-03-21T22:30:34.221Z,44.82
2019-03-21T22:33:03.562Z,44.77
2019-03-21T22:35:32.927Z,44.14
2019-03-21T22:38:02.263Z,44.49
2019-03-21T22:40:31.646Z,44.80
2019-03-21T22:43:00.984Z,44.84
2019-03-21T22:45:30.324Z,44.60
2019-03-21T22:47:59.699Z,44.44
2019-03-21T22:50:29.022Z,45.24
2019-03-21T22:52:58.393Z,45.29
2019-03-21T22:55:27.741Z,45.14
2019-03-21T22:57:57.088Z,45.54
2019-03-21T23:00:40.017Z,45.04
2019-03-21T23:03:09.534Z,45.49
2019-03-21T23:05:38.975Z,45.34
2019-03-21T23:08:08.309Z,45.32
2019-03-21T23:10:37.652Z,45.89
2019-03-21T23:13:07.153Z,45.79
2019-03-21T23:15:36.511Z,46.00
2019-03-21T23:18:05.960Z,46.16
2019-03-21T23:20:35.305Z,46.12
2019-03-21T23:23:04.648Z,46.11
2019-03-21T23:25:34.022Z,45.92
2019-03-21T23:28:03.377Z,46.95
2019-03-21T23:30:33.513Z,46.85
2019-03-21T23:33:03.022Z,46.39
2019-03-21T23:35:32.377Z,46.71
2019-03-21T23:38:01.736Z,46.60
2019-03-21T23:40:31.089Z,46.08
2019-03-21T23:43:00.437Z,45.65
2019-03-21T23:45:29.775Z,46.11
2019-03-21T23:47:59.145Z,46.60
2019-03-21T23:50:28.491Z,46.64
2019-03-21T23:52:57.831Z,46.98
2019-03-21T23:55:27.192Z,47.69
2019-03-21T23:57:56.544Z,47.56
